Terminal Aerodrome Forecast
Issued by NWS El Paso, TX

Home | Current Version | Previous Version | Text Only | Print | Product List | Glossary On
Versions: 1 2 3 4 5 6 7 8 9 10 11 12 13
000
FTUS44 KEPZ 271721
TAFELP
TAF
KELP 271721Z 2718/2818 24011KT P6SM BKN250
     FM271900 25017G27KT P6SM SCT150 BKN250
     FM280200 24011G22KT P6SM BKN120 BKN200
     FM281600 24020G30KT P6SM SCT120 BKN200=

USA.gov is the U.S. government's official web portal to all federal, state and local government web resources and services.